sensor_id;sensor_type;location;lat;lon;timestamp;P1;durP1;ratioP1;P2;durP2;ratioP2
22270;SDS011;11304;53.520;10.104;2023-06-22T00:00:50;5.95;;;3.85;;
22270;SDS011;11304;53.520;10.104;2023-06-22T00:03:20;9.30;;;3.83;;
22270;SDS011;11304;53.520;10.104;2023-06-22T00:05:47;4.00;;;3.60;;
22270;SDS011;11304;53.520;10.104;2023-06-22T00:08:13;6.05;;;4.07;;
22270;SDS011;11304;53.520;10.104;2023-06-22T00:10:40;5.95;;;4.82;;
22270;SDS011;11304;53.520;10.104;2023-06-22T00:13:07;4.53;;;3.55;;
22270;SDS011;11304;53.520;10.104;2023-06-22T00:15:33;8.70;;;4.57;;
22270;SDS011;11304;53.520;10.104;2023-06-22T00:17:59;3.70;;;3.25;;
22270;SDS011;11304;53.520;10.104;2023-06-22T00:20:26;5.25;;;3.25;;
22270;SDS011;11304;53.520;10.104;2023-06-22T00:22:55;7.78;;;3.72;;
22270;SDS011;11304;53.520;10.104;2023-06-22T00:25:21;5.82;;;3.70;;
22270;SDS011;11304;53.520;10.104;2023-06-22T00:27:48;5.47;;;4.05;;
22270;SDS011;11304;53.520;10.104;2023-06-22T00:30:17;6.47;;;4.40;;
22270;SDS011;11304;53.520;10.104;2023-06-22T00:32:44;7.32;;;4.32;;
22270;SDS011;11304;53.520;10.104;2023-06-22T00:35:11;6.63;;;3.97;;
22270;SDS011;11304;53.520;10.104;2023-06-22T00:37:38;5.25;;;3.50;;
22270;SDS011;11304;53.520;10.104;2023-06-22T00:40:07;5.25;;;3.28;;
22270;SDS011;11304;53.520;10.104;2023-06-22T00:42:36;4.63;;;3.42;;
22270;SDS011;11304;53.520;10.104;2023-06-22T00:45:02;6.75;;;3.83;;
22270;SDS011;11304;53.520;10.104;2023-06-22T00:47:28;4.45;;;3.85;;
22270;SDS011;11304;53.520;10.104;2023-06-22T00:49:54;7.38;;;3.58;;
22270;SDS011;11304;53.520;10.104;2023-06-22T00:52:21;4.18;;;3.42;;
22270;SDS011;11304;53.520;10.104;2023-06-22T00:54:52;4.68;;;4.05;;
22270;SDS011;11304;53.520;10.104;2023-06-22T00:57:19;3.95;;;3.35;;
22270;SDS011;11304;53.520;10.104;2023-06-22T00:59:46;6.05;;;3.85;;
22270;SDS011;11304;53.520;10.104;2023-06-22T01:02:13;5.60;;;4.35;;
22270;SDS011;11304;53.520;10.104;2023-06-22T01:04:40;5.85;;;4.30;;
22270;SDS011;11304;53.520;10.104;2023-06-22T01:12:20;5.75;;;4.22;;
22270;SDS011;11304;53.520;10.104;2023-06-22T01:14:50;4.75;;;3.90;;
22270;SDS011;11304;53.520;10.104;2023-06-22T01:17:20;3.92;;;3.53;;
22270;SDS011;11304;53.520;10.104;2023-06-22T01:19:50;6.00;;;4.72;;
22270;SDS011;11304;53.520;10.104;2023-06-22T01:22:17;7.35;;;4.68;;
22270;SDS011;11304;53.520;10.104;2023-06-22T01:29:58;4.03;;;3.38;;
22270;SDS011;11304;53.520;10.104;2023-06-22T01:32:30;5.10;;;3.97;;
22270;SDS011;11304;53.520;10.104;2023-06-22T01:34:58;5.70;;;5.10;;
22270;SDS011;11304;53.520;10.104;2023-06-22T01:37:24;8.02;;;4.72;;
22270;SDS011;11304;53.520;10.104;2023-06-22T01:39:51;7.32;;;4.40;;
22270;SDS011;11304;53.520;10.104;2023-06-22T01:42:17;4.57;;;3.70;;
22270;SDS011;11304;53.520;10.104;2023-06-22T01:44:43;4.53;;;3.70;;
22270;SDS011;11304;53.520;10.104;2023-06-22T01:47:09;6.57;;;4.50;;
22270;SDS011;11304;53.520;10.104;2023-06-22T01:49:35;5.15;;;4.30;;
22270;SDS011;11304;53.520;10.104;2023-06-22T01:52:02;5.78;;;4.68;;
22270;SDS011;11304;53.520;10.104;2023-06-22T01:54:28;5.00;;;4.45;;
22270;SDS011;11304;53.520;10.104;2023-06-22T01:56:54;4.85;;;4.10;;
22270;SDS011;11304;53.520;10.104;2023-06-22T01:59:34;4.70;;;4.20;;
22270;SDS011;11304;53.520;10.104;2023-06-22T02:02:11;3.75;;;3.28;;
22270;SDS011;11304;53.520;10.104;2023-06-22T02:07:08;5.38;;;4.45;;
22270;SDS011;11304;53.520;10.104;2023-06-22T02:09:35;5.38;;;3.53;;
22270;SDS011;11304;53.520;10.104;2023-06-22T02:12:02;6.68;;;4.32;;
22270;SDS011;11304;53.520;10.104;2023-06-22T02:14:30;5.90;;;4.28;;
22270;SDS011;11304;53.520;10.104;2023-06-22T02:16:56;4.15;;;3.70;;
22270;SDS011;11304;53.520;10.104;2023-06-22T02:19:24;5.13;;;4.25;;
22270;SDS011;11304;53.520;10.104;2023-06-22T02:21:50;4.25;;;3.85;;
22270;SDS011;11304;53.520;10.104;2023-06-22T02:24:16;3.20;;;2.53;;
22270;SDS011;11304;53.520;10.104;2023-06-22T02:26:43;2.30;;;1.85;;
22270;SDS011;11304;53.520;10.104;2023-06-22T02:29:10;2.08;;;1.67;;
22270;SDS011;11304;53.520;10.104;2023-06-22T02:31:36;1.75;;;1.55;;
22270;SDS011;11304;53.520;10.104;2023-06-22T02:34:02;6.05;;;4.68;;
22270;SDS011;11304;53.520;10.104;2023-06-22T02:36:28;0.98;;;0.88;;
22270;SDS011;11304;53.520;10.104;2023-06-22T02:38:55;2.50;;;2.15;;
22270;SDS011;11304;53.520;10.104;2023-06-22T02:41:24;5.38;;;3.00;;
22270;SDS011;11304;53.520;10.104;2023-06-22T02:43:50;3.30;;;2.47;;
22270;SDS011;11304;53.520;10.104;2023-06-22T02:46:16;4.43;;;1.80;;
22270;SDS011;11304;53.520;10.104;2023-06-22T02:48:42;3.83;;;2.63;;
22270;SDS011;11304;53.520;10.104;2023-06-22T02:51:08;3.70;;;3.13;;
22270;SDS011;11304;53.520;10.104;2023-06-22T02:53:34;7.20;;;4.57;;
22270;SDS011;11304;53.520;10.104;2023-06-22T02:56:03;5.78;;;3.97;;
22270;SDS011;11304;53.520;10.104;2023-06-22T02:58:32;6.18;;;5.00;;
22270;SDS011;11304;53.520;10.104;2023-06-22T03:01:03;6.82;;;4.72;;
22270;SDS011;11304;53.520;10.104;2023-06-22T03:03:30;4.10;;;3.67;;
22270;SDS011;11304;53.520;10.104;2023-06-22T03:05:56;3.58;;;3.28;;
22270;SDS011;11304;53.520;10.104;2023-06-22T03:08:22;3.97;;;3.05;;
22270;SDS011;11304;53.520;10.104;2023-06-22T03:10:48;2.80;;;2.38;;
22270;SDS011;11304;53.520;10.104;2023-06-22T03:13:14;3.92;;;2.72;;
22270;SDS011;11304;53.520;10.104;2023-06-22T03:15:41;4.32;;;3.28;;
22270;SDS011;11304;53.520;10.104;2023-06-22T03:18:07;6.07;;;4.50;;
22270;SDS011;11304;53.520;10.104;2023-06-22T03:20:33;4.55;;;4.10;;
22270;SDS011;11304;53.520;10.104;2023-06-22T03:23:00;8.07;;;5.57;;
22270;SDS011;11304;53.520;10.104;2023-06-22T03:25:26;4.20;;;3.40;;
22270;SDS011;11304;53.520;10.104;2023-06-22T03:27:52;4.75;;;3.40;;
22270;SDS011;11304;53.520;10.104;2023-06-22T03:30:18;5.15;;;3.60;;
22270;SDS011;11304;53.520;10.104;2023-06-22T03:32:44;5.80;;;5.20;;
22270;SDS011;11304;53.520;10.104;2023-06-22T03:35:11;7.03;;;6.25;;
22270;SDS011;11304;53.520;10.104;2023-06-22T03:37:39;8.20;;;6.70;;
22270;SDS011;11304;53.520;10.104;2023-06-22T03:40:05;6.93;;;6.22;;
22270;SDS011;11304;53.520;10.104;2023-06-22T03:42:33;6.97;;;5.38;;
22270;SDS011;11304;53.520;10.104;2023-06-22T03:45:00;7.20;;;5.22;;
22270;SDS011;11304;53.520;10.104;2023-06-22T03:47:26;5.90;;;4.65;;
22270;SDS011;11304;53.520;10.104;2023-06-22T03:49:53;5.93;;;4.35;;
22270;SDS011;11304;53.520;10.104;2023-06-22T03:52:20;7.13;;;5.60;;
22270;SDS011;11304;53.520;10.104;2023-06-22T03:54:47;6.95;;;5.60;;
22270;SDS011;11304;53.520;10.104;2023-06-22T03:57:13;7.18;;;5.78;;
22270;SDS011;11304;53.520;10.104;2023-06-22T03:59:39;8.60;;;5.47;;
22270;SDS011;11304;53.520;10.104;2023-06-22T04:02:05;6.57;;;5.32;;
22270;SDS011;11304;53.520;10.104;2023-06-22T04:04:31;6.97;;;5.82;;
22270;SDS011;11304;53.520;10.104;2023-06-22T04:06:58;10.32;;;6.50;;
22270;SDS011;11304;53.520;10.104;2023-06-22T04:09:24;10.88;;;6.22;;
22270;SDS011;11304;53.520;10.104;2023-06-22T04:11:51;7.95;;;6.45;;
22270;SDS011;11304;53.520;10.104;2023-06-22T04:14:17;7.70;;;6.28;;
22270;SDS011;11304;53.520;10.104;2023-06-22T04:16:43;8.73;;;6.10;;
22270;SDS011;11304;53.520;10.104;2023-06-22T04:19:09;6.45;;;5.72;;
22270;SDS011;11304;53.520;10.104;2023-06-22T04:21:41;8.35;;;5.55;;
22270;SDS011;11304;53.520;10.104;2023-06-22T04:24:07;11.52;;;5.90;;
22270;SDS011;11304;53.520;10.104;2023-06-22T04:26:33;12.48;;;7.00;;
22270;SDS011;11304;53.520;10.104;2023-06-22T04:29:02;19.75;;;7.63;;
22270;SDS011;11304;53.520;10.104;2023-06-22T04:31:30;15.45;;;6.85;;
22270;SDS011;11304;53.520;10.104;2023-06-22T04:33:57;10.13;;;6.10;;
22270;SDS011;11304;53.520;10.104;2023-06-22T04:36:40;6.82;;;5.28;;
22270;SDS011;11304;53.520;10.104;2023-06-22T04:39:07;12.38;;;6.60;;
22270;SDS011;11304;53.520;10.104;2023-06-22T04:41:35;10.77;;;6.20;;
22270;SDS011;11304;53.520;10.104;2023-06-22T04:44:08;15.20;;;6.03;;
22270;SDS011;11304;53.520;10.104;2023-06-22T04:46:34;12.70;;;6.82;;
22270;SDS011;11304;53.520;10.104;2023-06-22T04:49:07;8.60;;;6.28;;
22270;SDS011;11304;53.520;10.104;2023-06-22T04:51:41;7.53;;;5.40;;
22270;SDS011;11304;53.520;10.104;2023-06-22T04:54:08;10.07;;;5.45;;
22270;SDS011;11304;53.520;10.104;2023-06-22T04:56:35;20.95;;;7.03;;
22270;SDS011;11304;53.520;10.104;2023-06-22T04:59:01;13.38;;;5.70;;
22270;SDS011;11304;53.520;10.104;2023-06-22T05:01:28;9.95;;;6.20;;
22270;SDS011;11304;53.520;10.104;2023-06-22T05:03:57;10.90;;;7.13;;
22270;SDS011;11304;53.520;10.104;2023-06-22T05:06:26;9.90;;;6.85;;
22270;SDS011;11304;53.520;10.104;2023-06-22T05:08:56;12.02;;;7.53;;
22270;SDS011;11304;53.520;10.104;2023-06-22T05:11:25;9.55;;;7.10;;
22270;SDS011;11304;53.520;10.104;2023-06-22T05:13:51;15.63;;;7.65;;
22270;SDS011;11304;53.520;10.104;2023-06-22T05:16:18;13.70;;;6.82;;
22270;SDS011;11304;53.520;10.104;2023-06-22T05:18:49;16.10;;;6.85;;
22270;SDS011;11304;53.520;10.104;2023-06-22T05:21:15;17.40;;;6.93;;
22270;SDS011;11304;53.520;10.104;2023-06-22T05:23:41;14.23;;;6.38;;
22270;SDS011;11304;53.520;10.104;2023-06-22T05:26:07;17.83;;;6.95;;
22270;SDS011;11304;53.520;10.104;2023-06-22T05:28:35;17.35;;;6.55;;
22270;SDS011;11304;53.520;10.104;2023-06-22T05:31:01;12.07;;;5.75;;
22270;SDS011;11304;53.520;10.104;2023-06-22T05:33:27;22.38;;;7.43;;
22270;SDS011;11304;53.520;10.104;2023-06-22T05:35:53;10.77;;;6.43;;
22270;SDS011;11304;53.520;10.104;2023-06-22T05:38:19;7.63;;;6.03;;
22270;SDS011;11304;53.520;10.104;2023-06-22T05:40:45;9.65;;;6.53;;
22270;SDS011;11304;53.520;10.104;2023-06-22T05:43:11;10.15;;;6.07;;
22270;SDS011;11304;53.520;10.104;2023-06-22T05:45:38;10.27;;;5.90;;
22270;SDS011;11304;53.520;10.104;2023-06-22T05:48:04;31.48;;;7.13;;
22270;SDS011;11304;53.520;10.104;2023-06-22T05:50:31;24.45;;;6.00;;
22270;SDS011;11304;53.520;10.104;2023-06-22T05:52:57;25.55;;;6.60;;
22270;SDS011;11304;53.520;10.104;2023-06-22T05:55:23;24.52;;;6.38;;
22270;SDS011;11304;53.520;10.104;2023-06-22T05:57:49;6.93;;;5.35;;
22270;SDS011;11304;53.520;10.104;2023-06-22T06:00:15;15.02;;;5.07;;
22270;SDS011;11304;53.520;10.104;2023-06-22T06:02:41;18.70;;;5.88;;
22270;SDS011;11304;53.520;10.104;2023-06-22T06:05:08;16.10;;;5.63;;
22270;SDS011;11304;53.520;10.104;2023-06-22T06:07:34;13.52;;;5.32;;
22270;SDS011;11304;53.520;10.104;2023-06-22T06:10:02;13.30;;;5.68;;
22270;SDS011;11304;53.520;10.104;2023-06-22T06:12:29;13.15;;;5.80;;
22270;SDS011;11304;53.520;10.104;2023-06-22T06:14:55;18.83;;;5.32;;
22270;SDS011;11304;53.520;10.104;2023-06-22T06:17:21;10.52;;;4.80;;
22270;SDS011;11304;53.520;10.104;2023-06-22T06:19:48;13.43;;;4.68;;
22270;SDS011;11304;53.520;10.104;2023-06-22T06:22:14;22.40;;;5.97;;
22270;SDS011;11304;53.520;10.104;2023-06-22T06:24:40;16.13;;;5.18;;
22270;SDS011;11304;53.520;10.104;2023-06-22T06:27:06;17.73;;;5.05;;
22270;SDS011;11304;53.520;10.104;2023-06-22T06:29:33;17.48;;;5.75;;
22270;SDS011;11304;53.520;10.104;2023-06-22T06:31:59;16.80;;;5.07;;
22270;SDS011;11304;53.520;10.104;2023-06-22T06:34:25;13.55;;;4.80;;
22270;SDS011;11304;53.520;10.104;2023-06-22T06:36:51;14.38;;;4.97;;
22270;SDS011;11304;53.520;10.104;2023-06-22T06:39:17;40.92;;;6.50;;
22270;SDS011;11304;53.520;10.104;2023-06-22T06:41:43;11.70;;;4.35;;
22270;SDS011;11304;53.520;10.104;2023-06-22T06:44:09;25.80;;;5.00;;
22270;SDS011;11304;53.520;10.104;2023-06-22T06:46:35;13.15;;;4.32;;
22270;SDS011;11304;53.520;10.104;2023-06-22T06:49:02;23.08;;;4.80;;
22270;SDS011;11304;53.520;10.104;2023-06-22T06:51:29;21.83;;;4.60;;
22270;SDS011;11304;53.520;10.104;2023-06-22T06:53:55;19.23;;;4.45;;
22270;SDS011;11304;53.520;10.104;2023-06-22T06:56:21;20.35;;;4.72;;
22270;SDS011;11304;53.520;10.104;2023-06-22T06:58:49;36.75;;;5.10;;
22270;SDS011;11304;53.520;10.104;2023-06-22T07:01:15;33.40;;;5.77;;
22270;SDS011;11304;53.520;10.104;2023-06-22T07:03:41;10.43;;;3.67;;
22270;SDS011;11304;53.520;10.104;2023-06-22T07:06:08;8.95;;;3.90;;
22270;SDS011;11304;53.520;10.104;2023-06-22T07:08:34;17.88;;;4.45;;
22270;SDS011;11304;53.520;10.104;2023-06-22T07:11:01;12.75;;;4.22;;
22270;SDS011;11304;53.520;10.104;2023-06-22T07:13:28;30.15;;;4.78;;
22270;SDS011;11304;53.520;10.104;2023-06-22T07:15:54;17.65;;;4.32;;
22270;SDS011;11304;53.520;10.104;2023-06-22T07:18:20;16.80;;;4.78;;
22270;SDS011;11304;53.520;10.104;2023-06-22T07:20:46;28.55;;;4.80;;
22270;SDS011;11304;53.520;10.104;2023-06-22T07:23:12;20.55;;;4.53;;
22270;SDS011;11304;53.520;10.104;2023-06-22T07:25:38;24.98;;;4.22;;
22270;SDS011;11304;53.520;10.104;2023-06-22T07:28:05;11.32;;;3.95;;
22270;SDS011;11304;53.520;10.104;2023-06-22T07:30:31;21.42;;;5.03;;
22270;SDS011;11304;53.520;10.104;2023-06-22T07:32:58;9.90;;;4.10;;
22270;SDS011;11304;53.520;10.104;2023-06-22T07:35:28;11.23;;;3.58;;
22270;SDS011;11304;53.520;10.104;2023-06-22T07:37:54;26.08;;;4.70;;
22270;SDS011;11304;53.520;10.104;2023-06-22T07:40:20;10.50;;;3.80;;
22270;SDS011;11304;53.520;10.104;2023-06-22T07:42:47;14.68;;;3.78;;
22270;SDS011;11304;53.520;10.104;2023-06-22T07:45:19;8.50;;;3.58;;
22270;SDS011;11304;53.520;10.104;2023-06-22T07:47:45;20.88;;;4.43;;
22270;SDS011;11304;53.520;10.104;2023-06-22T07:50:11;17.63;;;4.45;;
22270;SDS011;11304;53.520;10.104;2023-06-22T07:52:37;11.05;;;3.30;;
22270;SDS011;11304;53.520;10.104;2023-06-22T07:55:03;23.50;;;4.15;;
22270;SDS011;11304;53.520;10.104;2023-06-22T07:57:30;15.65;;;3.55;;
22270;SDS011;11304;53.520;10.104;2023-06-22T07:59:59;5.85;;;3.10;;
22270;SDS011;11304;53.520;10.104;2023-06-22T08:02:26;11.25;;;4.03;;
22270;SDS011;11304;53.520;10.104;2023-06-22T08:04:52;6.88;;;2.95;;
22270;SDS011;11304;53.520;10.104;2023-06-22T08:07:18;9.43;;;3.35;;
22270;SDS011;11304;53.520;10.104;2023-06-22T08:09:48;5.35;;;3.03;;
22270;SDS011;11304;53.520;10.104;2023-06-22T08:12:15;9.18;;;3.38;;
22270;SDS011;11304;53.520;10.104;2023-06-22T08:14:41;14.63;;;4.07;;
22270;SDS011;11304;53.520;10.104;2023-06-22T08:17:09;7.57;;;3.38;;
22270;SDS011;11304;53.520;10.104;2023-06-22T08:19:36;3.70;;;2.75;;
22270;SDS011;11304;53.520;10.104;2023-06-22T08:22:02;14.40;;;3.53;;
22270;SDS011;11304;53.520;10.104;2023-06-22T08:24:29;15.00;;;4.22;;
22270;SDS011;11304;53.520;10.104;2023-06-22T08:26:55;4.82;;;2.95;;
22270;SDS011;11304;53.520;10.104;2023-06-22T08:29:21;12.65;;;3.67;;
22270;SDS011;11304;53.520;10.104;2023-06-22T08:31:47;6.15;;;2.60;;
22270;SDS011;11304;53.520;10.104;2023-06-22T08:34:14;10.52;;;3.28;;
22270;SDS011;11304;53.520;10.104;2023-06-22T08:36:40;4.32;;;2.53;;
22270;SDS011;11304;53.520;10.104;2023-06-22T08:39:16;13.50;;;3.50;;
22270;SDS011;11304;53.520;10.104;2023-06-22T08:41:42;17.95;;;2.90;;
22270;SDS011;11304;53.520;10.104;2023-06-22T08:44:10;14.57;;;3.50;;
22270;SDS011;11304;53.520;10.104;2023-06-22T08:46:36;6.10;;;3.30;;
22270;SDS011;11304;53.520;10.104;2023-06-22T08:49:03;5.90;;;2.50;;
22270;SDS011;11304;53.520;10.104;2023-06-22T08:51:30;9.88;;;2.58;;
22270;SDS011;11304;53.520;10.104;2023-06-22T08:53:56;8.77;;;2.67;;
22270;SDS011;11304;53.520;10.104;2023-06-22T08:56:22;9.40;;;2.53;;
22270;SDS011;11304;53.520;10.104;2023-06-22T08:58:48;15.57;;;3.47;;
22270;SDS011;11304;53.520;10.104;2023-06-22T09:01:14;33.35;;;5.03;;
22270;SDS011;11304;53.520;10.104;2023-06-22T09:03:41;7.22;;;2.85;;
22270;SDS011;11304;53.520;10.104;2023-06-22T09:06:07;5.90;;;2.67;;
22270;SDS011;11304;53.520;10.104;2023-06-22T09:08:35;5.57;;;2.63;;
22270;SDS011;11304;53.520;10.104;2023-06-22T09:11:01;3.95;;;2.80;;
22270;SDS011;11304;53.520;10.104;2023-06-22T09:13:29;8.32;;;2.65;;
22270;SDS011;11304;53.520;10.104;2023-06-22T09:15:56;6.18;;;2.90;;
22270;SDS011;11304;53.520;10.104;2023-06-22T09:18:22;6.10;;;2.60;;
22270;SDS011;11304;53.520;10.104;2023-06-22T09:20:48;8.32;;;3.03;;
22270;SDS011;11304;53.520;10.104;2023-06-22T09:23:14;16.45;;;3.25;;
22270;SDS011;11304;53.520;10.104;2023-06-22T09:25:41;20.85;;;4.20;;
22270;SDS011;11304;53.520;10.104;2023-06-22T09:28:07;7.32;;;3.25;;
22270;SDS011;11304;53.520;10.104;2023-06-22T09:30:33;14.40;;;3.22;;
22270;SDS011;11304;53.520;10.104;2023-06-22T09:32:59;11.10;;;3.13;;
22270;SDS011;11304;53.520;10.104;2023-06-22T09:35:26;4.20;;;2.80;;
22270;SDS011;11304;53.520;10.104;2023-06-22T09:37:52;9.18;;;3.13;;
22270;SDS011;11304;53.520;10.104;2023-06-22T09:40:18;5.70;;;3.00;;
22270;SDS011;11304;53.520;10.104;2023-06-22T09:42:45;8.85;;;3.13;;
22270;SDS011;11304;53.520;10.104;2023-06-22T09:45:11;26.17;;;4.72;;
22270;SDS011;11304;53.520;10.104;2023-06-22T09:47:37;11.60;;;3.40;;
22270;SDS011;11304;53.520;10.104;2023-06-22T09:50:03;4.05;;;2.40;;
22270;SDS011;11304;53.520;10.104;2023-06-22T09:52:30;17.48;;;4.03;;
22270;SDS011;11304;53.520;10.104;2023-06-22T09:54:56;6.55;;;2.90;;
22270;SDS011;11304;53.520;10.104;2023-06-22T09:57:22;13.52;;;3.58;;
22270;SDS011;11304;53.520;10.104;2023-06-22T09:59:48;14.10;;;3.45;;
22270;SDS011;11304;53.520;10.104;2023-06-22T10:02:14;7.13;;;2.70;;
22270;SDS011;11304;53.520;10.104;2023-06-22T10:04:40;24.55;;;4.40;;
22270;SDS011;11304;53.520;10.104;2023-06-22T10:07:06;11.15;;;3.45;;
22270;SDS011;11304;53.520;10.104;2023-06-22T10:09:32;6.15;;;2.88;;
22270;SDS011;11304;53.520;10.104;2023-06-22T10:11:59;5.72;;;2.53;;
22270;SDS011;11304;53.520;10.104;2023-06-22T10:14:25;8.02;;;3.40;;
22270;SDS011;11304;53.520;10.104;2023-06-22T10:16:52;7.88;;;3.30;;
22270;SDS011;11304;53.520;10.104;2023-06-22T10:19:18;77.32;;;8.90;;
22270;SDS011;11304;53.520;10.104;2023-06-22T10:21:44;5.22;;;3.25;;
22270;SDS011;11304;53.520;10.104;2023-06-22T10:24:10;16.55;;;4.15;;
22270;SDS011;11304;53.520;10.104;2023-06-22T10:26:37;4.50;;;3.10;;
22270;SDS011;11304;53.520;10.104;2023-06-22T10:29:03;5.65;;;3.08;;
22270;SDS011;11304;53.520;10.104;2023-06-22T10:31:29;4.10;;;3.33;;
22270;SDS011;11304;53.520;10.104;2023-06-22T10:33:55;8.90;;;3.55;;
22270;SDS011;11304;53.520;10.104;2023-06-22T10:36:22;8.48;;;3.97;;
22270;SDS011;11304;53.520;10.104;2023-06-22T10:38:48;5.80;;;3.15;;
22270;SDS011;11304;53.520;10.104;2023-06-22T10:41:14;11.73;;;3.75;;
22270;SDS011;11304;53.520;10.104;2023-06-22T10:43:41;4.03;;;3.10;;
22270;SDS011;11304;53.520;10.104;2023-06-22T10:46:07;5.22;;;3.08;;
22270;SDS011;11304;53.520;10.104;2023-06-22T10:48:33;4.80;;;3.58;;
22270;SDS011;11304;53.520;10.104;2023-06-22T10:51:00;4.85;;;3.75;;
22270;SDS011;11304;53.520;10.104;2023-06-22T10:53:26;8.35;;;4.05;;
22270;SDS011;11304;53.520;10.104;2023-06-22T10:55:52;9.00;;;3.97;;
22270;SDS011;11304;53.520;10.104;2023-06-22T10:58:19;6.65;;;3.70;;
22270;SDS011;11304;53.520;10.104;2023-06-22T11:00:45;6.75;;;3.60;;
22270;SDS011;11304;53.520;10.104;2023-06-22T11:03:11;15.88;;;4.32;;
22270;SDS011;11304;53.520;10.104;2023-06-22T11:05:39;5.25;;;3.47;;
22270;SDS011;11304;53.520;10.104;2023-06-22T11:08:06;7.43;;;3.70;;
22270;SDS011;11304;53.520;10.104;2023-06-22T11:10:32;6.78;;;4.28;;
22270;SDS011;11304;53.520;10.104;2023-06-22T11:12:58;7.15;;;3.70;;
22270;SDS011;11304;53.520;10.104;2023-06-22T11:15:24;6.85;;;4.15;;
22270;SDS011;11304;53.520;10.104;2023-06-22T11:17:51;8.73;;;4.15;;
22270;SDS011;11304;53.520;10.104;2023-06-22T11:20:17;5.20;;;3.75;;
22270;SDS011;11304;53.520;10.104;2023-06-22T11:22:43;5.22;;;3.47;;
22270;SDS011;11304;53.520;10.104;2023-06-22T11:25:09;4.95;;;3.55;;
22270;SDS011;11304;53.520;10.104;2023-06-22T11:27:37;6.80;;;3.80;;
22270;SDS011;11304;53.520;10.104;2023-06-22T11:30:03;5.18;;;3.95;;
22270;SDS011;11304;53.520;10.104;2023-06-22T11:32:29;6.50;;;3.80;;
22270;SDS011;11304;53.520;10.104;2023-06-22T11:34:55;8.07;;;3.70;;
22270;SDS011;11304;53.520;10.104;2023-06-22T11:37:21;6.93;;;3.70;;
22270;SDS011;11304;53.520;10.104;2023-06-22T11:39:47;5.82;;;3.58;;
22270;SDS011;11304;53.520;10.104;2023-06-22T11:42:13;9.55;;;3.97;;
22270;SDS011;11304;53.520;10.104;2023-06-22T11:44:40;5.70;;;3.53;;
22270;SDS011;11304;53.520;10.104;2023-06-22T11:47:06;6.97;;;3.92;;
22270;SDS011;11304;53.520;10.104;2023-06-22T11:49:32;11.55;;;4.47;;
22270;SDS011;11304;53.520;10.104;2023-06-22T11:51:58;11.25;;;3.92;;
22270;SDS011;11304;53.520;10.104;2023-06-22T11:54:24;6.30;;;3.55;;
22270;SDS011;11304;53.520;10.104;2023-06-22T11:56:50;14.27;;;4.50;;
22270;SDS011;11304;53.520;10.104;2023-06-22T11:59:16;14.90;;;4.00;;
22270;SDS011;11304;53.520;10.104;2023-06-22T12:01:43;8.77;;;4.30;;
22270;SDS011;11304;53.520;10.104;2023-06-22T12:04:09;9.93;;;4.25;;
22270;SDS011;11304;53.520;10.104;2023-06-22T12:06:37;9.05;;;4.90;;
22270;SDS011;11304;53.520;10.104;2023-06-22T12:09:06;6.45;;;4.38;;
22270;SDS011;11304;53.520;10.104;2023-06-22T12:11:33;5.70;;;4.43;;
22270;SDS011;11304;53.520;10.104;2023-06-22T12:13:59;9.27;;;5.15;;
22270;SDS011;11304;53.520;10.104;2023-06-22T12:16:27;11.20;;;5.18;;
22270;SDS011;11304;53.520;10.104;2023-06-22T12:18:53;10.60;;;4.60;;
22270;SDS011;11304;53.520;10.104;2023-06-22T12:21:19;6.90;;;4.40;;
22270;SDS011;11304;53.520;10.104;2023-06-22T12:23:45;13.18;;;4.50;;
22270;SDS011;11304;53.520;10.104;2023-06-22T12:26:12;5.82;;;4.25;;
22270;SDS011;11304;53.520;10.104;2023-06-22T12:28:38;5.00;;;4.00;;
22270;SDS011;11304;53.520;10.104;2023-06-22T12:31:04;6.38;;;4.72;;
22270;SDS011;11304;53.520;10.104;2023-06-22T12:33:30;11.50;;;4.65;;
22270;SDS011;11304;53.520;10.104;2023-06-22T12:35:56;7.18;;;3.97;;
22270;SDS011;11304;53.520;10.104;2023-06-22T12:38:22;8.32;;;4.68;;
22270;SDS011;11304;53.520;10.104;2023-06-22T12:40:52;4.93;;;4.15;;
22270;SDS011;11304;53.520;10.104;2023-06-22T12:43:18;15.77;;;5.03;;
22270;SDS011;11304;53.520;10.104;2023-06-22T12:45:44;6.97;;;4.03;;
22270;SDS011;11304;53.520;10.104;2023-06-22T12:48:10;7.80;;;4.28;;
22270;SDS011;11304;53.520;10.104;2023-06-22T12:50:37;5.78;;;4.10;;
22270;SDS011;11304;53.520;10.104;2023-06-22T12:53:03;5.63;;;4.65;;
22270;SDS011;11304;53.520;10.104;2023-06-22T12:55:31;8.60;;;4.82;;
22270;SDS011;11304;53.520;10.104;2023-06-22T12:57:57;9.45;;;4.93;;
22270;SDS011;11304;53.520;10.104;2023-06-22T13:00:23;10.05;;;5.65;;
22270;SDS011;11304;53.520;10.104;2023-06-22T13:02:49;22.15;;;5.60;;
22270;SDS011;11304;53.520;10.104;2023-06-22T13:05:15;9.07;;;4.80;;
22270;SDS011;11304;53.520;10.104;2023-06-22T13:07:42;10.63;;;4.93;;
22270;SDS011;11304;53.520;10.104;2023-06-22T13:10:08;12.57;;;5.57;;
22270;SDS011;11304;53.520;10.104;2023-06-22T13:12:34;7.22;;;5.00;;
22270;SDS011;11304;53.520;10.104;2023-06-22T13:15:00;6.22;;;4.70;;
22270;SDS011;11304;53.520;10.104;2023-06-22T13:17:28;14.00;;;5.27;;
22270;SDS011;11304;53.520;10.104;2023-06-22T13:19:54;8.48;;;5.35;;
22270;SDS011;11304;53.520;10.104;2023-06-22T13:22:28;8.18;;;5.13;;
22270;SDS011;11304;53.520;10.104;2023-06-22T13:24:54;9.68;;;4.93;;
22270;SDS011;11304;53.520;10.104;2023-06-22T13:27:21;24.08;;;5.32;;
22270;SDS011;11304;53.520;10.104;2023-06-22T13:29:47;9.48;;;4.30;;
22270;SDS011;11304;53.520;10.104;2023-06-22T13:32:13;12.55;;;4.97;;
22270;SDS011;11304;53.520;10.104;2023-06-22T13:34:39;16.23;;;4.95;;
22270;SDS011;11304;53.520;10.104;2023-06-22T13:37:05;7.10;;;4.68;;
22270;SDS011;11304;53.520;10.104;2023-06-22T13:39:31;18.10;;;5.60;;
22270;SDS011;11304;53.520;10.104;2023-06-22T13:41:57;16.23;;;5.28;;
22270;SDS011;11304;53.520;10.104;2023-06-22T13:44:24;22.73;;;6.45;;
22270;SDS011;11304;53.520;10.104;2023-06-22T13:46:53;12.02;;;4.60;;
22270;SDS011;11304;53.520;10.104;2023-06-22T13:49:20;12.45;;;4.72;;
22270;SDS011;11304;53.520;10.104;2023-06-22T13:51:46;7.35;;;4.70;;
22270;SDS011;11304;53.520;10.104;2023-06-22T13:54:13;29.25;;;5.57;;
22270;SDS011;11304;53.520;10.104;2023-06-22T13:56:39;7.10;;;4.15;;
22270;SDS011;11304;53.520;10.104;2023-06-22T13:59:06;10.50;;;5.25;;
22270;SDS011;11304;53.520;10.104;2023-06-22T14:01:34;23.85;;;5.78;;
22270;SDS011;11304;53.520;10.104;2023-06-22T14:04:00;11.68;;;5.13;;
22270;SDS011;11304;53.520;10.104;2023-06-22T14:06:29;24.30;;;6.13;;
22270;SDS011;11304;53.520;10.104;2023-06-22T14:08:55;6.53;;;4.70;;
22270;SDS011;11304;53.520;10.104;2023-06-22T14:11:21;12.40;;;5.63;;
22270;SDS011;11304;53.520;10.104;2023-06-22T14:13:48;9.00;;;5.20;;
22270;SDS011;11304;53.520;10.104;2023-06-22T14:16:14;6.00;;;4.85;;
22270;SDS011;11304;53.520;10.104;2023-06-22T14:18:40;6.47;;;4.88;;
22270;SDS011;11304;53.520;10.104;2023-06-22T14:21:07;11.45;;;5.65;;
22270;SDS011;11304;53.520;10.104;2023-06-22T14:23:33;5.50;;;4.90;;
22270;SDS011;11304;53.520;10.104;2023-06-22T14:25:59;8.57;;;5.20;;
22270;SDS011;11304;53.520;10.104;2023-06-22T14:28:25;21.35;;;5.55;;
22270;SDS011;11304;53.520;10.104;2023-06-22T14:30:53;8.68;;;5.15;;
22270;SDS011;11304;53.520;10.104;2023-06-22T14:33:19;7.00;;;5.18;;
22270;SDS011;11304;53.520;10.104;2023-06-22T14:35:45;6.30;;;5.22;;
22270;SDS011;11304;53.520;10.104;2023-06-22T14:38:12;7.40;;;5.35;;